| Date | Time | Temp. (oF) | Dew Point (oF) | Rel. Hum. (%) | Press. (in.) | Wind Dir. | Wind Speed (mph) | Hourly Rainfall (in.) |
|
|---|---|---|---|---|---|---|---|---|---|
| 1 | 11/02 | 00:00 | 64 | 58 | 82 | 29.68 | S | 12 | 0.00 |
| 2 | 11/01 | 23:00 | 63 | 57 | 81 | 29.71 | S | 5 | 0.00 |
| 3 | 11/01 | 22:00 | 63 | 56 | 80 | 29.72 | SSE | 14 | 0.00 |
| 4 | 11/01 | 21:00 | 63 | 54 | 74 | 29.73 | SSE | 6 | 0.00 |
| 5 | 11/01 | 20:00 | 63 | 53 | 70 | 29.75 | SSE | 10 | 0.00 |
| 6 | 11/01 | 19:00 | 65 | 52 | 65 | 29.74 | SSE | 3 | 0.00 |
| 7 | 11/01 | 18:00 | 65 | 53 | 67 | 29.73 | S | 2 | 0.00 |
| 8 | 11/01 | 17:00 | 67 | 55 | 66 | 29.73 | SSE | 2 | 0.00 |
| 9 | 11/01 | 16:00 | 69 | 56 | 64 | 29.75 | SSE | 9 | 0.00 |
| 10 | 11/01 | 15:00 | 69 | 57 | 66 | 29.77 | S | 6 | 0.00 |
| 11 | 11/01 | 14:00 | 69 | 56 | 65 | 29.78 | S | 10 | 0.00 |
| 12 | 11/01 | 13:00 | 70 | 55 | 61 | 29.79 | SSE | 7 | 0.00 |
| 13 | 11/01 | 12:00 | 69 | 57 | 66 | 29.82 | SSE | 4 | 0.00 |
| 14 | 11/01 | 11:00 | 63 | 55 | 76 | 29.84 | SSE | 7 | 0.00 |
| 15 | 11/01 | 10:00 | 58 | 54 | 88 | 29.86 | S | 4 | 0.00 |
| 16 | 11/01 | 09:00 | 54 | 53 | 97 | 29.87 | SSE | 1 | 0.00 |
| 17 | 11/01 | 08:00 | 50 | 49 | 97 | 29.87 | SSE | 0 | 0.00 |
| 18 | 11/01 | 07:00 | 50 | 49 | 98 | 29.87 | SSE | 1 | 0.00 |
| 19 | 11/01 | 06:00 | 48 | 47 | 97 | 29.87 | SSE | 0 | 0.00 |
| 20 | 11/01 | 05:00 | 48 | 46 | 95 | 29.87 | SSE | 0 | 0.00 |
| 21 | 11/01 | 04:00 | 49 | 47 | 94 | 29.87 | SSE | 0 | 0.00 |
| 22 | 11/01 | 03:00 | 50 | 47 | 92 | 29.87 | SSE | 1 | 0.00 |
| 23 | 11/01 | 02:00 | 51 | 47 | 89 | 29.87 | SE | 1 | 0.00 |
| 24 | 11/01 | 01:00 | 53 | 48 | 86 | 29.88 | SE | 1 | 0.00 |